Time;durP1;ratioP1;P1;durP2;ratioP2;P2;SDS_P1;SDS_P2;PMS_P1;PMS_P2;Temp;Humidity;BMP_temperature;BMP_pressure;BME280_temperature;BME280_humidity;BME280_pressure;Samples;Min_cycle;Max_cycle;Signal;HPM_P1;HPM_P2
2023/06/22 00:00:33;;;;;;;29.25;26.88;;;;;;;;;;5032522;28;20122;-78
2023/06/22 00:02:59;;;;;;;31.83;29.13;;;;;;;;;;5032976;28;20049;-78
2023/06/22 00:05:25;;;;;;;30.75;28.15;;;;;;;;;;5017012;28;20041;-78
2023/06/22 00:07:51;;;;;;;31.50;28.80;;;;;;;;;;5033508;28;20049;-78
2023/06/22 00:10:18;;;;;;;31.02;28.50;;;;;;;;;;5033476;28;20057;-78
2023/06/22 00:12:44;;;;;;;33.67;30.77;;;;;;;;;;5033415;28;20049;-78
2023/06/22 00:15:10;;;;;;;30.45;27.73;;;;;;;;;;5032591;28;20057;-78
2023/06/22 00:17:36;;;;;;;30.42;27.92;;;;;;;;;;5032802;28;20041;-78
2023/06/22 00:20:05;;;;;;;32.40;29.60;;;;;;;;;;5016257;28;20056;-78
2023/06/22 00:22:31;;;;;;;35.10;31.95;;;;;;;;;;5032386;28;20057;-78
2023/06/22 00:24:57;;;;;;;31.60;28.70;;;;;;;;;;5032491;28;20486;-78
2023/06/22 00:27:24;;;;;;;32.90;30.10;;;;;;;;;;5033473;28;20136;-78
2023/06/22 00:29:50;;;;;;;34.95;32.00;;;;;;;;;;5032443;28;20063;-78
2023/06/22 00:32:17;;;;;;;30.58;28.05;;;;;;;;;;5032484;28;20045;-78
2023/06/22 00:34:43;;;;;;;37.97;34.55;;;;;;;;;;5020149;28;20053;-78
2023/06/22 00:37:11;;;;;;;30.77;28.13;;;;;;;;;;5036585;28;20045;-78
2023/06/22 00:39:37;;;;;;;30.70;27.98;;;;;;;;;;5037076;28;20045;-78
2023/06/22 00:42:03;;;;;;;32.22;29.55;;;;;;;;;;5036491;28;20053;-78
2023/06/22 00:44:29;;;;;;;32.40;29.67;;;;;;;;;;5036243;28;20054;-79
2023/06/22 00:46:55;;;;;;;36.03;33.03;;;;;;;;;;5036214;28;20065;-78
2023/06/22 00:49:22;;;;;;;36.80;33.60;;;;;;;;;;5036031;28;20053;-79
2023/06/22 00:51:48;;;;;;;34.10;31.30;;;;;;;;;;5036321;28;20112;-79
2023/06/22 00:54:15;;;;;;;36.25;33.05;;;;;;;;;;5019497;28;20053;-79
2023/06/22 00:56:42;;;;;;;35.72;32.63;;;;;;;;;;5036981;28;20069;-78
2023/06/22 00:59:12;;;;;;;33.33;30.17;;;;;;;;;;5035957;28;20068;-79
2023/06/22 01:01:41;;;;;;;36.10;32.67;;;;;;;;;;5036456;28;20390;-78
2023/06/22 01:04:07;;;;;;;36.22;33.22;;;;;;;;;;5035843;28;20064;-78
2023/06/22 01:06:38;;;;;;;34.65;31.75;;;;;;;;;;5035825;28;20056;-78
2023/06/22 01:09:15;;;;;;;34.20;31.25;;;;;;;;;;5036070;28;20061;-78
2023/06/22 01:11:48;;;;;;;37.70;34.55;;;;;;;;;;5035971;28;20045;-79
2023/06/22 01:14:38;;;;;;;37.70;34.40;;;;;;;;;;5019540;28;20054;-79
2023/06/22 01:17:06;;;;;;;37.75;34.55;;;;;;;;;;5036183;28;20465;-79
2023/06/22 01:19:41;;;;;;;35.38;32.35;;;;;;;;;;5035721;28;20049;-79
2023/06/22 01:22:12;;;;;;;33.58;30.88;;;;;;;;;;5035194;28;20100;-79
2023/06/22 01:24:57;;;;;;;34.65;31.73;;;;;;;;;;5035421;28;20362;-79
2023/06/22 01:27:29;;;;;;;33.92;31.15;;;;;;;;;;5018785;28;20448;-79
2023/06/22 01:30:05;;;;;;;34.63;31.88;;;;;;;;;;5035292;28;20132;-79
2023/06/22 01:32:32;;;;;;;37.15;34.05;;;;;;;;;;5019690;28;20041;-78
2023/06/22 01:35:00;;;;;;;39.13;35.63;;;;;;;;;;5036858;28;20057;-78
2023/06/22 01:37:27;;;;;;;38.70;35.45;;;;;;;;;;5035307;28;20056;-78
2023/06/22 01:39:54;;;;;;;35.83;32.83;;;;;;;;;;5019354;28;20048;-78
2023/06/22 01:42:20;;;;;;;34.47;31.58;;;;;;;;;;5035127;28;20079;-77
2023/06/22 01:44:46;;;;;;;33.55;30.85;;;;;;;;;;5033993;28;20049;-78
2023/06/22 01:47:13;;;;;;;37.88;34.70;;;;;;;;;;5035118;28;20099;-78
2023/06/22 01:49:40;;;;;;;35.65;32.75;;;;;;;;;;5019234;28;20140;-78
2023/06/22 01:52:07;;;;;;;39.85;36.35;;;;;;;;;;5034963;28;20389;-78
2023/06/22 01:54:33;;;;;;;40.53;36.97;;;;;;;;;;5002172;28;20049;-78
2023/06/22 01:56:59;;;;;;;34.05;31.35;;;;;;;;;;5035734;28;20210;-78
2023/06/22 01:59:26;;;;;;;35.03;32.13;;;;;;;;;;5018591;28;20112;-78
2023/06/22 02:01:59;;;;;;;36.90;33.72;;;;;;;;;;5035085;28;20397;-78
2023/06/22 02:04:27;;;;;;;37.78;34.60;;;;;;;;;;5035068;28;20050;-78
2023/06/22 02:06:57;;;;;;;38.30;35.08;;;;;;;;;;5035218;28;20381;-78
2023/06/22 02:09:24;;;;;;;35.28;32.40;;;;;;;;;;5034629;28;20087;-78
2023/06/22 02:11:53;;;;;;;37.90;34.85;;;;;;;;;;5035432;28;20060;-78
2023/06/22 02:14:20;;;;;;;35.55;32.63;;;;;;;;;;5018337;28;20045;-78
2023/06/22 02:16:46;;;;;;;36.05;33.03;;;;;;;;;;5034778;28;20392;-78
2023/06/22 02:19:12;;;;;;;37.55;34.38;;;;;;;;;;5034421;28;20052;-78
2023/06/22 02:21:38;;;;;;;37.85;34.53;;;;;;;;;;5001224;28;20489;-77
2023/06/22 02:24:05;;;;;;;36.05;33.05;;;;;;;;;;5034376;28;20056;-78
2023/06/22 02:26:31;;;;;;;40.17;36.80;;;;;;;;;;5034283;28;20111;-78
2023/06/22 02:28:57;;;;;;;38.38;35.20;;;;;;;;;;5034581;28;20053;-78
2023/06/22 02:31:30;;;;;;;39.47;36.08;;;;;;;;;;5034236;28;20057;-78
2023/06/22 02:33:57;;;;;;;38.03;34.75;;;;;;;;;;5034209;28;20493;-78
2023/06/22 02:36:24;;;;;;;35.38;32.45;;;;;;;;;;5035073;28;20050;-78
2023/06/22 02:38:51;;;;;;;39.97;36.40;;;;;;;;;;5034639;28;20540;-78
2023/06/22 02:41:19;;;;;;;35.22;32.38;;;;;;;;;;5035745;28;20148;-78
2023/06/22 02:43:48;;;;;;;41.17;37.75;;;;;;;;;;5034785;28;20045;-78
2023/06/22 02:46:15;;;;;;;38.88;35.47;;;;;;;;;;5034195;28;20041;-78
2023/06/22 02:48:41;;;;;;;36.80;33.67;;;;;;;;;;5001110;28;20045;-78
2023/06/22 02:51:07;;;;;;;38.00;34.88;;;;;;;;;;5034872;28;20100;-78
2023/06/22 02:53:33;;;;;;;39.45;36.22;;;;;;;;;;5034988;28;20049;-78
2023/06/22 02:56:01;;;;;;;41.50;38.08;;;;;;;;;;5033842;28;20068;-78
2023/06/22 02:58:27;;;;;;;38.70;35.30;;;;;;;;;;5034145;28;20064;-78
2023/06/22 03:00:53;;;;;;;36.78;33.67;;;;;;;;;;5033128;28;20050;-78
2023/06/22 03:03:22;;;;;;;41.20;37.53;;;;;;;;;;5033870;28;20038;-78
2023/06/22 03:05:48;;;;;;;39.70;36.13;;;;;;;;;;5033858;28;20041;-78
2023/06/22 03:08:14;;;;;;;40.25;36.65;;;;;;;;;;5033301;28;20374;-78
2023/06/22 03:10:40;;;;;;;38.72;35.55;;;;;;;;;;5034218;28;20049;-78
2023/06/22 03:13:06;;;;;;;42.03;38.55;;;;;;;;;;5033488;28;20080;-78
2023/06/22 03:15:32;;;;;;;41.22;37.45;;;;;;;;;;5033231;28;20049;-78
2023/06/22 03:17:58;;;;;;;41.45;37.92;;;;;;;;;;5034108;28;20057;-79
2023/06/22 03:20:26;;;;;;;39.38;36.13;;;;;;;;;;5017528;28;20152;-78
2023/06/22 03:22:52;;;;;;;39.75;36.28;;;;;;;;;;5032620;28;20053;-78
2023/06/22 03:25:19;;;;;;;41.85;38.28;;;;;;;;;;5033214;28;20042;-79
2023/06/22 03:27:45;;;;;;;42.08;38.47;;;;;;;;;;5034016;28;20053;-78
2023/06/22 03:30:12;;;;;;;39.45;36.03;;;;;;;;;;5033151;28;20115;-78
2023/06/22 03:32:38;;;;;;;41.97;38.47;;;;;;;;;;5033915;28;20045;-78
2023/06/22 03:35:06;;;;;;;47.60;43.30;;;;;;;;;;5033073;28;20103;-78
2023/06/22 03:37:32;;;;;;;43.60;39.95;;;;;;;;;;5032745;28;20045;-78
2023/06/22 03:39:58;;;;;;;41.35;37.78;;;;;;;;;;5033504;28;20045;-78
2023/06/22 03:42:24;;;;;;;45.70;41.63;;;;;;;;;;5032675;28;20045;-78
2023/06/22 03:44:50;;;;;;;39.42;36.15;;;;;;;;;;5032967;28;20056;-78
2023/06/22 03:47:16;;;;;;;42.83;39.17;;;;;;;;;;5032881;28;20432;-78
2023/06/22 03:49:42;;;;;;;38.97;35.88;;;;;;;;;;5032808;28;20045;-78
2023/06/22 03:52:10;;;;;;;41.35;37.88;;;;;;;;;;5034405;28;20151;-79
2023/06/22 03:54:36;;;;;;;43.15;39.55;;;;;;;;;;5032538;28;20489;-78
2023/06/22 03:57:02;;;;;;;47.08;42.80;;;;;;;;;;5033594;28;20049;-78
2023/06/22 03:59:29;;;;;;;42.08;38.63;;;;;;;;;;5032596;28;20129;-78
2023/06/22 04:01:55;;;;;;;44.97;40.95;;;;;;;;;;5032423;28;20054;-78
2023/06/22 04:04:21;;;;;;;47.15;42.88;;;;;;;;;;5032684;28;20052;-79
2023/06/22 04:06:47;;;;;;;45.72;41.83;;;;;;;;;;5032312;28;20049;-79
2023/06/22 04:09:13;;;;;;;44.38;40.58;;;;;;;;;;5031937;28;20056;-78
2023/06/22 04:11:39;;;;;;;43.83;40.15;;;;;;;;;;5016497;28;20041;-79
2023/06/22 04:14:05;;;;;;;45.30;41.47;;;;;;;;;;5033360;28;20053;-79
2023/06/22 04:16:31;;;;;;;42.80;39.13;;;;;;;;;;5032888;28;20084;-78
2023/06/22 04:18:57;;;;;;;41.55;37.95;;;;;;;;;;5032550;28;20096;-79
2023/06/22 04:21:23;;;;;;;39.45;36.13;;;;;;;;;;5032204;28;20065;-78
2023/06/22 04:23:49;;;;;;;44.95;41.28;;;;;;;;;;5016061;28;20056;-78
2023/06/22 04:26:15;;;;;;;44.50;40.67;;;;;;;;;;5032439;28;20049;-78
2023/06/22 04:28:42;;;;;;;41.15;37.75;;;;;;;;;;5033509;28;20505;-78
2023/06/22 04:31:08;;;;;;;42.53;38.65;;;;;;;;;;5032480;28;20128;-78
2023/06/22 04:33:34;;;;;;;43.25;39.55;;;;;;;;;;5016771;28;20049;-78
2023/06/22 04:36:03;;;;;;;43.38;39.50;;;;;;;;;;5032097;28;20053;-79
2023/06/22 04:38:33;;;;;;;41.58;38.15;;;;;;;;;;5032403;28;20115;-78
2023/06/22 04:41:01;;;;;;;41.03;37.45;;;;;;;;;;5032152;28;20049;-79
2023/06/22 04:43:30;;;;;;;44.25;40.45;;;;;;;;;;5033142;28;20128;-78
2023/06/22 04:46:03;;;;;;;41.67;38.20;;;;;;;;;;5033105;28;20046;-79
2023/06/22 04:48:32;;;;;;;40.90;37.47;;;;;;;;;;5033059;28;20054;-79
2023/06/22 04:51:02;;;;;;;43.78;39.90;;;;;;;;;;5032297;28;20106;-78
2023/06/22 04:53:29;;;;;;;42.05;38.45;;;;;;;;;;5015822;28;20045;-78
2023/06/22 04:55:55;;;;;;;47.65;43.50;;;;;;;;;;5016533;28;20045;-79
2023/06/22 04:58:21;;;;;;;45.80;41.83;;;;;;;;;;5032398;28;20076;-79
2023/06/22 05:00:51;;;;;;;47.72;43.67;;;;;;;;;;5032663;28;20477;-79
2023/06/22 05:03:18;;;;;;;52.95;48.15;;;;;;;;;;5015814;28;20058;-79
2023/06/22 05:05:44;;;;;;;47.10;43.03;;;;;;;;;;5032142;28;20091;-79
2023/06/22 05:08:10;;;;;;;48.33;44.08;;;;;;;;;;5031807;28;20057;-79
2023/06/22 05:10:36;;;;;;;50.13;45.72;;;;;;;;;;5032420;28;20148;-79
2023/06/22 05:13:02;;;;;;;49.17;44.88;;;;;;;;;;5032965;28;20377;-79
2023/06/22 05:15:30;;;;;;;47.55;43.53;;;;;;;;;;5015659;28;20049;-79
2023/06/22 05:17:58;;;;;;;48.97;44.60;;;;;;;;;;5015596;28;20091;-79
2023/06/22 05:20:24;;;;;;;48.63;44.45;;;;;;;;;;5035924;28;20115;-79
2023/06/22 05:22:50;;;;;;;45.65;41.63;;;;;;;;;;5035374;28;20107;-79
2023/06/22 05:25:16;;;;;;;47.40;43.22;;;;;;;;;;5035215;28;20069;-79
2023/06/22 05:27:43;;;;;;;47.63;43.45;;;;;;;;;;5035495;28;20042;-79
2023/06/22 05:30:11;;;;;;;48.30;44.13;;;;;;;;;;5035701;28;20053;-79
2023/06/22 05:32:37;;;;;;;50.15;45.80;;;;;;;;;;5019777;28;20053;-80
2023/06/22 05:35:04;;;;;;;48.80;44.63;;;;;;;;;;5035362;28;20045;-79
2023/06/22 05:37:30;;;;;;;50.22;45.63;;;;;;;;;;5035834;28;20049;-79
2023/06/22 05:39:57;;;;;;;48.58;44.17;;;;;;;;;;5018671;28;20045;-80
2023/06/22 05:42:25;;;;;;;47.22;42.90;;;;;;;;;;5035232;28;20057;-80
2023/06/22 05:44:51;;;;;;;46.05;41.97;;;;;;;;;;5018667;28;20488;-79
2023/06/22 05:47:17;;;;;;;44.22;40.20;;;;;;;;;;5018706;28;20474;-80
2023/06/22 05:49:43;;;;;;;42.50;38.70;;;;;;;;;;5034971;28;20054;-80
2023/06/22 05:52:09;;;;;;;42.35;38.50;;;;;;;;;;5018282;28;20053;-79
2023/06/22 05:54:35;;;;;;;39.58;36.13;;;;;;;;;;5035188;28;20495;-80
2023/06/22 05:57:02;;;;;;;40.20;36.55;;;;;;;;;;5034950;28;20095;-79
2023/06/22 05:59:28;;;;;;;42.13;38.38;;;;;;;;;;5035710;28;20045;-80
2023/06/22 06:01:54;;;;;;;39.85;36.35;;;;;;;;;;5034831;28;20095;-80
2023/06/22 06:04:20;;;;;;;38.42;35.22;;;;;;;;;;5018334;28;20053;-80
2023/06/22 06:06:47;;;;;;;37.47;34.40;;;;;;;;;;5035043;28;20071;-79
2023/06/22 06:09:13;;;;;;;38.35;34.95;;;;;;;;;;5018478;28;20049;-80
2023/06/22 06:11:40;;;;;;;37.85;34.65;;;;;;;;;;5034695;28;20200;-80
2023/06/22 06:14:06;;;;;;;37.47;34.28;;;;;;;;;;5034625;28;20052;-80
2023/06/22 06:16:32;;;;;;;37.28;34.25;;;;;;;;;;5002184;28;20094;-80
2023/06/22 06:18:58;;;;;;;36.05;33.15;;;;;;;;;;5002029;28;20053;-80
2023/06/22 06:21:24;;;;;;;37.35;34.08;;;;;;;;;;5034596;28;20457;-79
2023/06/22 06:23:50;;;;;;;33.08;30.40;;;;;;;;;;5034403;28;20053;-80
2023/06/22 06:26:16;;;;;;;32.38;29.77;;;;;;;;;;5034305;28;20037;-80
2023/06/22 06:28:46;;;;;;;31.88;29.10;;;;;;;;;;5034341;28;20041;-80
2023/06/22 06:31:16;;;;;;;32.13;29.42;;;;;;;;;;5033497;28;20037;-80
2023/06/22 06:33:43;;;;;;;31.77;29.33;;;;;;;;;;5034276;28;20085;-80
2023/06/22 06:36:09;;;;;;;33.20;30.38;;;;;;;;;;5034214;28;20068;-80
2023/06/22 06:38:35;;;;;;;29.38;27.05;;;;;;;;;;5034163;28;20052;-80
2023/06/22 06:41:01;;;;;;;30.10;27.70;;;;;;;;;;5033846;28;20544;-80
2023/06/22 06:43:27;;;;;;;24.35;22.42;;;;;;;;;;5034805;28;20055;-80
2023/06/22 06:45:53;;;;;;;20.85;19.15;;;;;;;;;;5018351;28;20461;-80
2023/06/22 06:48:19;;;;;;;17.70;16.42;;;;;;;;;;5034645;28;20103;-80
2023/06/22 06:50:45;;;;;;;17.67;15.98;;;;;;;;;;5033582;28;20049;-79
2023/06/22 06:53:11;;;;;;;16.45;15.15;;;;;;;;;;5033877;28;20132;-79
2023/06/22 06:55:37;;;;;;;16.10;14.70;;;;;;;;;;5034573;28;20529;-79
2023/06/22 06:58:08;;;;;;;15.27;14.18;;;;;;;;;;5034024;28;20041;-80
2023/06/22 07:00:35;;;;;;;14.82;13.52;;;;;;;;;;5034356;28;20389;-80
2023/06/22 07:03:01;;;;;;;14.32;13.30;;;;;;;;;;5034436;28;20045;-80
2023/06/22 07:05:27;;;;;;;13.70;12.60;;;;;;;;;;5017847;28;20481;-80
2023/06/22 07:07:54;;;;;;;11.75;10.95;;;;;;;;;;5034475;28;20440;-80
2023/06/22 07:10:20;;;;;;;13.85;12.63;;;;;;;;;;5033819;28;20049;-81
2023/06/22 07:12:46;;;;;;;12.35;11.18;;;;;;;;;;5017067;28;20477;-81
2023/06/22 07:15:12;;;;;;;13.02;11.68;;;;;;;;;;5034254;28;20053;-81
2023/06/22 07:17:42;;;;;;;10.50;9.70;;;;;;;;;;5033710;28;20059;-80
2023/06/22 07:20:11;;;;;;;10.48;9.63;;;;;;;;;;5033220;28;20042;-80
2023/06/22 07:22:42;;;;;;;10.45;9.65;;;;;;;;;;5032949;28;20057;-80
2023/06/22 07:25:09;;;;;;;10.45;9.65;;;;;;;;;;5034102;28;20049;-80
2023/06/22 07:27:43;;;;;;;10.52;9.52;;;;;;;;;;5033217;28;20099;-81
2023/06/22 07:30:10;;;;;;;9.57;8.65;;;;;;;;;;5034040;28;20045;-80
2023/06/22 07:32:36;;;;;;;9.48;8.70;;;;;;;;;;5017039;28;20041;-80
2023/06/22 07:35:03;;;;;;;8.40;7.70;;;;;;;;;;5017430;28;20389;-80
2023/06/22 07:37:30;;;;;;;10.32;9.52;;;;;;;;;;5033065;28;20049;-80
2023/06/22 07:39:59;;;;;;;10.60;9.60;;;;;;;;;;5016697;28;20512;-83
2023/06/22 07:42:26;;;;;;;11.35;10.55;;;;;;;;;;5000887;28;20140;-80
2023/06/22 07:44:52;;;;;;;10.45;9.38;;;;;;;;;;5032999;28;20053;-80
2023/06/22 07:47:19;;;;;;;9.57;8.77;;;;;;;;;;5033159;28;20056;-80
2023/06/22 07:49:45;;;;;;;10.15;9.23;;;;;;;;;;5033105;28;20092;-80
2023/06/22 07:52:12;;;;;;;12.48;10.25;;;;;;;;;;5033633;28;20045;-79
2023/06/22 07:54:38;;;;;;;9.13;8.43;;;;;;;;;;5033163;28;20114;-81
2023/06/22 07:57:05;;;;;;;8.93;8.32;;;;;;;;;;5032751;28;20045;-79
2023/06/22 07:59:31;;;;;;;10.57;9.68;;;;;;;;;;5016316;28;20049;-79
2023/06/22 08:01:57;;;;;;;9.68;8.98;;;;;;;;;;5033412;28;20037;-79
2023/06/22 08:04:23;;;;;;;9.60;8.90;;;;;;;;;;5033364;28;20053;-80
2023/06/22 08:06:49;;;;;;;8.48;7.75;;;;;;;;;;5015931;28;20060;-79
2023/06/22 08:09:15;;;;;;;9.95;9.15;;;;;;;;;;5017044;28;20055;-80
2023/06/22 08:11:41;;;;;;;9.93;9.15;;;;;;;;;;5033663;28;20092;-79
2023/06/22 08:14:07;;;;;;;10.57;9.88;;;;;;;;;;5032608;28;20051;-80
2023/06/22 08:16:33;;;;;;;11.55;10.65;;;;;;;;;;5032349;28;20555;-80
2023/06/22 08:18:59;;;;;;;10.93;9.98;;;;;;;;;;5032453;28;20481;-80
2023/06/22 08:21:25;;;;;;;11.02;10.10;;;;;;;;;;5015671;28;20054;-79
2023/06/22 08:23:51;;;;;;;9.20;8.50;;;;;;;;;;5015811;28;20121;-79
2023/06/22 08:26:17;;;;;;;9.65;8.85;;;;;;;;;;5032596;28;20133;-80
2023/06/22 08:28:44;;;;;;;9.15;8.35;;;;;;;;;;5032326;28;20049;-79
2023/06/22 08:31:13;;;;;;;9.55;8.85;;;;;;;;;;5032438;28;20084;-80
2023/06/22 08:33:40;;;;;;;9.30;8.57;;;;;;;;;;5000238;28;20144;-79
2023/06/22 08:36:08;;;;;;;7.75;7.15;;;;;;;;;;5032411;28;20045;-79
2023/06/22 08:38:34;;;;;;;9.20;8.55;;;;;;;;;;5032688;28;20128;-80
2023/06/22 08:41:00;;;;;;;8.50;7.88;;;;;;;;;;5032160;28;20046;-80
2023/06/22 08:43:26;;;;;;;9.13;8.43;;;;;;;;;;5015971;28;20092;-79
2023/06/22 08:45:52;;;;;;;13.57;8.35;;;;;;;;;;5015927;28;20112;-80
2023/06/22 08:48:18;;;;;;;8.88;8.13;;;;;;;;;;5032528;28;20140;-80
2023/06/22 08:50:45;;;;;;;7.60;7.00;;;;;;;;;;4999904;28;20073;-80
2023/06/22 08:53:11;;;;;;;8.70;8.07;;;;;;;;;;5033201;28;20092;-80
2023/06/22 08:55:37;;;;;;;7.75;7.25;;;;;;;;;;5020255;28;20376;-79
2023/06/22 08:58:03;;;;;;;9.75;8.88;;;;;;;;;;5036765;28;20114;-79
2023/06/22 09:00:32;;;;;;;8.57;7.88;;;;;;;;;;5036038;28;20132;-79
2023/06/22 09:02:58;;;;;;;7.63;6.93;;;;;;;;;;5035700;28;20096;-80
2023/06/22 09:05:26;;;;;;;8.20;7.10;;;;;;;;;;5036451;28;20385;-80
2023/06/22 09:07:54;;;;;;;7.88;7.28;;;;;;;;;;5035984;28;20053;-80
2023/06/22 09:10:20;;;;;;;7.82;7.28;;;;;;;;;;5019714;28;20397;-79
2023/06/22 09:12:46;;;;;;;8.70;8.00;;;;;;;;;;5035991;28;20445;-79
2023/06/22 09:15:12;;;;;;;6.57;6.05;;;;;;;;;;5019273;28;20045;-79
2023/06/22 09:17:39;;;;;;;7.70;7.05;;;;;;;;;;5036639;28;20504;-80
2023/06/22 09:20:05;;;;;;;8.07;7.47;;;;;;;;;;5035418;28;20128;-79
2023/06/22 09:22:32;;;;;;;9.02;8.30;;;;;;;;;;5019073;28;20057;-80
2023/06/22 09:24:59;;;;;;;9.02;8.43;;;;;;;;;;5035485;28;20053;-80
2023/06/22 09:27:25;;;;;;;7.93;7.32;;;;;;;;;;5035455;28;20041;-80
2023/06/22 09:29:51;;;;;;;6.55;6.07;;;;;;;;;;5019807;28;20049;-80
2023/06/22 09:32:18;;;;;;;8.18;7.47;;;;;;;;;;5035649;28;20071;-79
2023/06/22 09:34:44;;;;;;;8.30;7.68;;;;;;;;;;5019180;28;20046;-80
2023/06/22 09:37:10;;;;;;;7.00;6.60;;;;;;;;;;5018794;28;20059;-80
2023/06/22 09:39:36;;;;;;;7.35;6.75;;;;;;;;;;5035293;28;20099;-81
2023/06/22 09:42:03;;;;;;;8.55;7.88;;;;;;;;;;5035684;28;20114;-80
2023/06/22 09:44:29;;;;;;;5.88;5.47;;;;;;;;;;5035201;28;20050;-79
2023/06/22 09:46:55;;;;;;;8.13;7.55;;;;;;;;;;5035937;28;20132;-80
2023/06/22 09:49:21;;;;;;;7.47;6.90;;;;;;;;;;5018514;28;20144;-81
2023/06/22 09:51:47;;;;;;;8.00;7.40;;;;;;;;;;5035038;28;20045;-80
2023/06/22 09:54:13;;;;;;;6.20;5.78;;;;;;;;;;5035031;28;20424;-80
2023/06/22 09:56:39;;;;;;;6.40;5.85;;;;;;;;;;5035667;28;20054;-80
2023/06/22 09:59:05;;;;;;;6.85;6.35;;;;;;;;;;5035213;28;20128;-80
2023/06/22 10:01:31;;;;;;;6.07;5.68;;;;;;;;;;5034671;28;20046;-80
2023/06/22 10:03:58;;;;;;;7.95;7.40;;;;;;;;;;5002139;28;20053;-80
2023/06/22 10:06:25;;;;;;;8.27;7.60;;;;;;;;;;5033564;28;20477;-80
2023/06/22 10:08:51;;;;;;;6.53;6.03;;;;;;;;;;5018227;28;20058;-81
2023/06/22 10:11:17;;;;;;;7.40;6.80;;;;;;;;;;5036136;28;20048;-80
2023/06/22 10:13:43;;;;;;;5.65;5.15;;;;;;;;;;5018919;28;20374;-80
2023/06/22 10:16:09;;;;;;;7.07;6.68;;;;;;;;;;5035396;28;20045;-80
2023/06/22 10:18:35;;;;;;;6.45;5.95;;;;;;;;;;5017715;28;20088;-80
2023/06/22 10:21:02;;;;;;;5.32;4.90;;;;;;;;;;5033967;28;20057;-80
2023/06/22 10:23:28;;;;;;;6.35;5.82;;;;;;;;;;5034762;28;20510;-79
2023/06/22 10:25:56;;;;;;;5.88;5.47;;;;;;;;;;5034373;28;20508;-81
2023/06/22 10:28:23;;;;;;;5.28;4.90;;;;;;;;;;5034207;28;20053;-80
2023/06/22 10:30:49;;;;;;;5.00;4.70;;;;;;;;;;5017758;28;20050;-80
2023/06/22 10:33:15;;;;;;;6.50;5.82;;;;;;;;;;5033935;28;20041;-81
2023/06/22 10:35:41;;;;;;;4.72;4.32;;;;;;;;;;5034175;28;20524;-80
2023/06/22 10:38:08;;;;;;;4.75;4.43;;;;;;;;;;5017810;28;20041;-80
2023/06/22 10:40:34;;;;;;;5.00;4.60;;;;;;;;;;5034283;28;20045;-81
2023/06/22 10:43:00;;;;;;;4.70;4.30;;;;;;;;;;5034119;28;20396;-80
2023/06/22 10:45:27;;;;;;;4.85;4.57;;;;;;;;;;5035082;28;20132;-80
2023/06/22 10:47:53;;;;;;;5.03;4.63;;;;;;;;;;5034018;28;20056;-80
2023/06/22 10:50:20;;;;;;;3.97;3.35;;;;;;;;;;5017390;28;20041;-81
2023/06/22 10:52:46;;;;;;;3.50;3.30;;;;;;;;;;5017422;28;20049;-80
2023/06/22 10:55:12;;;;;;;3.35;2.80;;;;;;;;;;5034821;28;20045;-81
2023/06/22 10:57:41;;;;;;;4.32;3.88;;;;;;;;;;5017450;28;20043;-80
2023/06/22 11:00:08;;;;;;;3.63;3.30;;;;;;;;;;5033981;28;20092;-81
2023/06/22 11:02:34;;;;;;;4.13;3.28;;;;;;;;;;5033927;28;20053;-80
2023/06/22 11:05:01;;;;;;;4.82;4.55;;;;;;;;;;5033949;28;20057;-80
2023/06/22 11:07:28;;;;;;;4.85;4.45;;;;;;;;;;5033417;28;20055;-80
2023/06/22 11:09:54;;;;;;;4.35;4.05;;;;;;;;;;5016792;28;20050;-80
2023/06/22 11:12:20;;;;;;;3.97;3.67;;;;;;;;;;5034460;28;20053;-80
2023/06/22 11:14:47;;;;;;;3.03;2.75;;;;;;;;;;5033489;28;20067;-80
2023/06/22 11:17:13;;;;;;;3.53;3.25;;;;;;;;;;5016582;28;20053;-81
2023/06/22 11:19:39;;;;;;;4.15;3.85;;;;;;;;;;5033767;28;20374;-81
2023/06/22 11:22:05;;;;;;;3.38;3.17;;;;;;;;;;5016174;28;20111;-81
2023/06/22 11:24:32;;;;;;;4.63;4.32;;;;;;;;;;5034073;28;20053;-81
2023/06/22 11:26:58;;;;;;;2.90;2.67;;;;;;;;;;5033237;28;20095;-81
2023/06/22 11:29:24;;;;;;;3.53;3.20;;;;;;;;;;5033128;28;20095;-80
2023/06/22 11:31:50;;;;;;;4.28;3.63;;;;;;;;;;5034951;28;20048;-80
2023/06/22 11:34:17;;;;;;;4.18;2.83;;;;;;;;;;5032954;28;20131;-80
2023/06/22 11:36:44;;;;;;;3.35;3.15;;;;;;;;;;5016710;28;20060;-81
2023/06/22 11:39:10;;;;;;;4.28;3.97;;;;;;;;;;5016692;28;20277;-81
2023/06/22 11:41:36;;;;;;;4.60;4.20;;;;;;;;;;5033900;28;20049;-81
2023/06/22 11:44:04;;;;;;;3.83;2.92;;;;;;;;;;5032997;28;20045;-81
2023/06/22 11:46:31;;;;;;;3.90;3.60;;;;;;;;;;5032978;28;20512;-81
2023/06/22 11:48:57;;;;;;;3.30;3.10;;;;;;;;;;5032879;28;20053;-81
2023/06/22 11:51:23;;;;;;;3.63;3.42;;;;;;;;;;5016469;28;20096;-81
2023/06/22 11:53:49;;;;;;;4.43;4.07;;;;;;;;;;5033674;28;20049;-81
2023/06/22 11:56:16;;;;;;;3.80;3.60;;;;;;;;;;5016218;28;20050;-80
2023/06/22 11:58:42;;;;;;;3.08;2.88;;;;;;;;;;5033055;28;20065;-81
2023/06/22 12:01:08;;;;;;;4.47;3.42;;;;;;;;;;5033578;28;20045;-81
2023/06/22 12:03:34;;;;;;;4.95;4.45;;;;;;;;;;5000857;28;20444;-81
2023/06/22 12:06:01;;;;;;;4.47;3.85;;;;;;;;;;5033501;28;20392;-80
2023/06/22 12:08:27;;;;;;;3.70;3.40;;;;;;;;;;5032748;28;20049;-81
2023/06/22 12:10:54;;;;;;;3.40;3.20;;;;;;;;;;5016244;28;20052;-81
2023/06/22 12:13:20;;;;;;;2.65;2.35;;;;;;;;;;5033585;28;20053;-81
2023/06/22 12:15:46;;;;;;;2.53;2.33;;;;;;;;;;5017060;28;20042;-81
2023/06/22 12:18:14;;;;;;;3.17;2.95;;;;;;;;;;5033346;28;20060;-81
2023/06/22 12:20:40;;;;;;;3.50;3.20;;;;;;;;;;5032129;28;20123;-81
2023/06/22 12:23:07;;;;;;;2.70;2.50;;;;;;;;;;5032601;28;20042;-80
2023/06/22 12:25:33;;;;;;;2.50;2.30;;;;;;;;;;5032570;28;20050;-81
2023/06/22 12:27:59;;;;;;;4.10;3.90;;;;;;;;;;5016152;28;20045;-80
2023/06/22 12:30:25;;;;;;;4.78;3.50;;;;;;;;;;5036340;28;20053;-80
2023/06/22 12:32:51;;;;;;;3.00;2.70;;;;;;;;;;5036688;28;20041;-80
2023/06/22 12:35:17;;;;;;;4.07;3.28;;;;;;;;;;5037611;28;20053;-80
2023/06/22 12:37:43;;;;;;;3.40;2.35;;;;;;;;;;5038654;28;20041;-80
2023/06/22 12:40:10;;;;;;;3.83;3.20;;;;;;;;;;5037311;28;20055;-80
2023/06/22 12:42:36;;;;;;;2.92;1.98;;;;;;;;;;5036054;28;20543;-80
2023/06/22 12:45:02;;;;;;;3.42;2.47;;;;;;;;;;5036655;28;20056;-80
2023/06/22 12:47:28;;;;;;;2.80;2.65;;;;;;;;;;5037116;28;20057;-80
2023/06/22 12:49:54;;;;;;;1.80;1.70;;;;;;;;;;5036448;28;20057;-80
2023/06/22 12:52:20;;;;;;;2.65;1.48;;;;;;;;;;5036107;28;20563;-80
2023/06/22 12:54:46;;;;;;;1.63;1.52;;;;;;;;;;5036147;28;20064;-80
2023/06/22 12:57:12;;;;;;;1.95;1.70;;;;;;;;;;5003401;28;20045;-80
2023/06/22 12:59:38;;;;;;;2.88;2.10;;;;;;;;;;5036072;28;20451;-80
2023/06/22 13:02:05;;;;;;;2.30;2.20;;;;;;;;;;5035806;28;20065;-80
2023/06/22 13:04:31;;;;;;;3.15;2.03;;;;;;;;;;5036189;28;20187;-80
2023/06/22 13:06:57;;;;;;;2.28;2.08;;;;;;;;;;5035715;28;20056;-80
2023/06/22 13:09:23;;;;;;;2.30;1.63;;;;;;;;;;5035907;28;20158;-80
2023/06/22 13:11:49;;;;;;;2.95;1.70;;;;;;;;;;5035882;28;20539;-80
2023/06/22 13:14:16;;;;;;;3.15;1.90;;;;;;;;;;5019435;28;20042;-80
2023/06/22 13:16:42;;;;;;;4.18;1.38;;;;;;;;;;5035435;28;20061;-80
2023/06/22 13:19:08;;;;;;;8.35;1.83;;;;;;;;;;5036594;28;20045;-81
2023/06/22 13:21:34;;;;;;;10.02;2.42;;;;;;;;;;5035501;28;20057;-81
2023/06/22 13:24:01;;;;;;;6.72;2.55;;;;;;;;;;5018829;28;20140;-81
2023/06/22 13:26:28;;;;;;;4.93;1.95;;;;;;;;;;5036358;28;20058;-81
2023/06/22 13:28:54;;;;;;;4.97;2.30;;;;;;;;;;5019558;28;20053;-80
2023/06/22 13:31:21;;;;;;;5.30;1.80;;;;;;;;;;5019018;28;20057;-80
2023/06/22 13:33:48;;;;;;;6.47;1.90;;;;;;;;;;5035413;28;20550;-79
2023/06/22 13:36:15;;;;;;;3.05;2.42;;;;;;;;;;5035237;28;20049;-80
2023/06/22 13:38:41;;;;;;;3.95;2.00;;;;;;;;;;5035077;28;20055;-79
2023/06/22 13:41:07;;;;;;;4.65;2.35;;;;;;;;;;5034729;28;20053;-80
2023/06/22 13:43:33;;;;;;;5.30;2.58;;;;;;;;;;5036905;28;20041;-79
2023/06/22 13:45:59;;;;;;;4.15;2.10;;;;;;;;;;5035137;28;20049;-80
2023/06/22 13:48:25;;;;;;;2.78;1.67;;;;;;;;;;5018563;28;20064;-79
2023/06/22 13:50:52;;;;;;;3.75;1.95;;;;;;;;;;5034845;28;20075;-79
2023/06/22 13:53:18;;;;;;;2.13;1.85;;;;;;;;;;5018583;28;20052;-79
2023/06/22 13:55:44;;;;;;;2.50;2.30;;;;;;;;;;5034737;28;20042;-79
2023/06/22 13:58:10;;;;;;;2.28;2.13;;;;;;;;;;5035790;28;20140;-79
2023/06/22 14:00:36;;;;;;;3.75;2.38;;;;;;;;;;5034833;28;20500;-79
2023/06/22 14:03:02;;;;;;;3.55;2.10;;;;;;;;;;5035734;28;20343;-80
2023/06/22 14:05:28;;;;;;;2.60;2.40;;;;;;;;;;5034819;28;20056;-80
2023/06/22 14:07:54;;;;;;;2.45;2.33;;;;;;;;;;5035788;28;20124;-80
2023/06/22 14:10:20;;;;;;;2.63;2.40;;;;;;;;;;5018286;28;20095;-79
2023/06/22 14:12:46;;;;;;;3.22;2.28;;;;;;;;;;5034721;28;20136;-79
2023/06/22 14:15:12;;;;;;;2.47;2.28;;;;;;;;;;5001935;28;20493;-80
2023/06/22 14:17:38;;;;;;;3.65;2.30;;;;;;;;;;5034933;28;20401;-79
2023/06/22 14:20:07;;;;;;;2.08;1.98;;;;;;;;;;5034477;28;20116;-79
2023/06/22 14:22:35;;;;;;;4.28;2.63;;;;;;;;;;5034133;28;20401;-78
2023/06/22 14:25:01;;;;;;;3.65;2.30;;;;;;;;;;5034457;28;20057;-78